createdAt,value
2018-12-25T00:00:08.449Z,0.00
2018-12-25T00:01:08.434Z,0.00
2018-12-25T00:02:08.416Z,0.00
2018-12-25T00:03:08.406Z,0.00
2018-12-25T00:04:08.393Z,0.00
2018-12-25T00:05:08.417Z,0.00
2018-12-25T00:06:08.374Z,0.00
2018-12-25T00:07:08.413Z,0.00
2018-12-25T00:08:08.356Z,0.00
2018-12-25T00:09:08.338Z,0.00
2018-12-25T00:10:08.356Z,0.00
2018-12-25T00:11:08.317Z,0.00
2018-12-25T00:12:08.304Z,0.00
2018-12-25T00:13:08.327Z,0.00
2018-12-25T00:14:08.282Z,0.00
2018-12-25T00:15:08.275Z,0.00
2018-12-25T00:16:08.275Z,0.00
2018-12-25T00:17:08.249Z,0.00
2018-12-25T00:18:08.257Z,0.00
2018-12-25T00:19:08.226Z,0.00
2018-12-25T00:20:08.216Z,120.00
2018-12-25T00:21:08.242Z,120.00
2018-12-25T00:22:08.436Z,120.00
2018-12-25T00:23:08.181Z,116.00
2018-12-25T00:24:08.170Z,0.00
2018-12-25T00:25:08.195Z,0.00
2018-12-25T00:26:08.160Z,0.00
2018-12-25T00:27:08.143Z,0.00
2018-12-25T00:28:08.147Z,0.00
2018-12-25T00:29:08.115Z,0.00
2018-12-25T00:30:08.124Z,0.00
2018-12-25T00:31:08.105Z,0.00
2018-12-25T00:32:08.091Z,0.00
2018-12-25T00:33:08.088Z,0.00
2018-12-25T00:34:08.059Z,0.00
2018-12-25T00:35:08.046Z,0.00
2018-12-25T00:36:08.100Z,0.00
2018-12-25T00:37:08.027Z,0.00
2018-12-25T00:38:08.031Z,0.00
2018-12-25T00:39:08.001Z,0.00
2018-12-25T00:40:08.002Z,0.00
2018-12-25T00:41:08.044Z,0.00
2018-12-25T00:42:07.976Z,0.00
2018-12-25T00:43:07.963Z,0.00
2018-12-25T00:44:08.051Z,0.00
2018-12-25T00:45:07.935Z,0.00
2018-12-25T00:46:07.989Z,0.00
2018-12-25T00:47:07.914Z,0.00
2018-12-25T00:48:07.995Z,0.00
2018-12-25T00:49:14.721Z,0.00
2018-12-25T00:50:08.877Z,0.00
2018-12-25T00:51:07.869Z,0.00
2018-12-25T00:52:07.972Z,0.00
2018-12-25T00:53:07.847Z,0.00
2018-12-25T00:54:07.863Z,0.00
2018-12-25T00:55:07.850Z,0.00
2018-12-25T00:56:07.828Z,0.00
2018-12-25T00:57:07.813Z,0.00
2018-12-25T00:58:07.789Z,0.00
2018-12-25T00:59:07.779Z,0.00
2018-12-25T01:00:07.817Z,0.00
2018-12-25T01:01:07.760Z,0.00
2018-12-25T01:02:07.874Z,0.00
2018-12-25T01:03:07.733Z,0.00
2018-12-25T01:04:07.723Z,0.00
2018-12-25T01:05:07.711Z,0.00
2018-12-25T01:06:07.712Z,0.00
2018-12-25T01:07:07.699Z,0.00
2018-12-25T01:08:07.716Z,0.00
2018-12-25T01:09:07.675Z,0.00
2018-12-25T01:10:07.655Z,0.00
2018-12-25T01:11:07.645Z,0.00
2018-12-25T01:12:07.649Z,0.00
2018-12-25T01:13:07.632Z,0.00
2018-12-25T01:14:07.764Z,0.00
2018-12-25T01:15:07.599Z,0.00
2018-12-25T01:16:07.590Z,0.00
2018-12-25T01:17:07.613Z,0.00
2018-12-25T01:18:07.564Z,0.00
2018-12-25T01:19:07.553Z,0.00
2018-12-25T01:20:07.549Z,0.00
2018-12-25T01:21:07.532Z,0.00
2018-12-25T01:22:07.547Z,0.00
2018-12-25T01:23:07.508Z,0.00
2018-12-25T01:24:07.504Z,0.00
2018-12-25T01:25:07.558Z,0.00
2018-12-25T01:26:07.477Z,0.00
2018-12-25T01:27:07.475Z,0.00
2018-12-25T01:28:07.468Z,0.00
2018-12-25T01:29:07.444Z,0.00
2018-12-25T01:30:07.430Z,0.00
2018-12-25T01:31:07.451Z,0.00
2018-12-25T01:32:07.410Z,0.00
2018-12-25T01:33:07.411Z,0.00
2018-12-25T01:34:07.387Z,0.00
2018-12-25T01:35:07.413Z,0.00
2018-12-25T01:36:07.372Z,0.00
2018-12-25T01:37:07.355Z,0.00
2018-12-25T01:38:07.364Z,0.00
2018-12-25T01:39:07.331Z,0.00
2018-12-25T01:40:07.319Z,0.00
2018-12-25T01:41:07.310Z,0.00
2018-12-25T01:42:07.297Z,0.00
2018-12-25T01:43:07.299Z,0.00
2018-12-25T01:44:07.298Z,0.00
2018-12-25T01:45:07.269Z,0.00
2018-12-25T01:46:07.253Z,0.00
2018-12-25T01:47:07.240Z,0.00
2018-12-25T01:48:07.242Z,0.00
2018-12-25T01:49:07.221Z,0.00
2018-12-25T01:50:07.228Z,0.00
2018-12-25T01:51:07.196Z,0.00
2018-12-25T01:52:07.183Z,0.00
2018-12-25T01:53:07.219Z,0.00
2018-12-25T01:54:07.167Z,0.00
2018-12-25T01:55:07.151Z,0.00
2018-12-25T01:56:07.150Z,0.00
2018-12-25T01:57:07.130Z,0.00
2018-12-25T01:58:07.134Z,0.00
2018-12-25T01:59:07.154Z,0.00
2018-12-25T02:00:07.098Z,0.00
2018-12-25T02:01:07.085Z,0.00
2018-12-25T02:02:07.084Z,0.00
2018-12-25T02:03:07.063Z,0.00
2018-12-25T02:04:07.066Z,0.00
2018-12-25T02:05:07.047Z,0.00
2018-12-25T02:06:07.031Z,0.00
2018-12-25T02:07:07.017Z,0.00
2018-12-25T02:08:07.005Z,0.00
2018-12-25T02:09:07.024Z,0.00
2018-12-25T02:10:06.983Z,0.00
2018-12-25T02:11:06.970Z,0.00
2018-12-25T02:12:06.961Z,0.00
2018-12-25T02:13:06.970Z,0.00
2018-12-25T02:14:06.949Z,0.00
2018-12-25T02:15:06.954Z,0.00
2018-12-25T02:16:06.917Z,0.00
2018-12-25T02:17:06.916Z,0.00
2018-12-25T02:18:06.903Z,0.00
2018-12-25T02:19:06.910Z,0.00
2018-12-25T02:20:06.870Z,0.00
2018-12-25T02:21:06.862Z,0.00
2018-12-25T02:22:06.850Z,0.00
2018-12-25T02:23:06.883Z,0.00
2018-12-25T02:24:06.842Z,0.00
2018-12-25T02:25:06.818Z,0.00
2018-12-25T02:26:06.815Z,0.00
2018-12-25T02:27:06.792Z,0.00
2018-12-25T02:28:06.792Z,0.00
2018-12-25T02:29:06.784Z,0.00
2018-12-25T02:30:06.767Z,0.00
2018-12-25T02:31:06.750Z,0.00
2018-12-25T02:32:06.747Z,0.00
2018-12-25T02:33:06.725Z,0.00
2018-12-25T02:34:06.830Z,0.00
2018-12-25T02:35:06.714Z,0.00
2018-12-25T02:36:06.727Z,0.00
2018-12-25T02:37:06.683Z,0.00
2018-12-25T02:38:06.690Z,0.00
2018-12-25T02:39:06.658Z,0.00
2018-12-25T02:40:06.662Z,0.00
2018-12-25T02:41:06.641Z,0.00
2018-12-25T02:42:06.627Z,0.00
2018-12-25T02:43:06.615Z,0.00
2018-12-25T02:44:06.611Z,0.00
2018-12-25T02:45:06.607Z,0.00
2018-12-25T02:46:06.581Z,0.00
2018-12-25T02:47:06.575Z,0.00
2018-12-25T02:48:06.574Z,0.00
2018-12-25T02:49:06.548Z,0.00
2018-12-25T02:50:06.569Z,0.00
2018-12-25T02:51:06.526Z,0.00
2018-12-25T02:52:06.526Z,0.00
2018-12-25T02:53:06.505Z,0.00
2018-12-25T02:54:06.504Z,0.00
2018-12-25T02:55:06.493Z,0.00
2018-12-25T02:56:06.469Z,0.00
2018-12-25T02:57:06.481Z,0.00
2018-12-25T02:58:06.451Z,0.00
2018-12-25T02:59:06.457Z,0.00
2018-12-25T03:00:06.438Z,0.00
2018-12-25T03:01:06.430Z,0.00
2018-12-25T03:02:06.404Z,0.00
2018-12-25T03:03:06.395Z,0.00
2018-12-25T03:04:06.399Z,0.00
2018-12-25T03:05:06.390Z,0.00
2018-12-25T03:06:06.359Z,0.00
2018-12-25T03:07:06.368Z,0.00
2018-12-25T03:08:06.339Z,0.00
2018-12-25T03:09:06.333Z,0.00
2018-12-25T03:10:06.336Z,0.00
2018-12-25T03:11:06.301Z,0.00
2018-12-25T03:12:06.294Z,0.00
2018-12-25T03:13:06.283Z,0.00
2018-12-25T03:14:06.283Z,0.00
2018-12-25T03:15:06.285Z,0.00
2018-12-25T03:16:06.247Z,0.00
2018-12-25T03:17:06.238Z,0.00
2018-12-25T03:18:06.224Z,0.00
2018-12-25T03:19:06.215Z,0.00
2018-12-25T03:20:06.230Z,0.00
2018-12-25T03:21:06.203Z,0.00
2018-12-25T03:22:06.197Z,0.00
2018-12-25T03:23:06.168Z,0.00
2018-12-25T03:24:06.162Z,0.00
2018-12-25T03:25:06.146Z,0.00
2018-12-25T03:26:06.161Z,0.00
2018-12-25T03:27:06.132Z,0.00
2018-12-25T03:28:06.119Z,0.00
2018-12-25T03:29:06.103Z,0.00
2018-12-25T03:30:06.098Z,0.00
2018-12-25T03:31:06.093Z,0.00
2018-12-25T03:32:06.071Z,0.00
2018-12-25T03:33:06.076Z,0.00
2018-12-25T03:34:06.072Z,0.00
2018-12-25T03:35:06.037Z,0.00
2018-12-25T03:36:06.035Z,0.00
2018-12-25T03:37:06.014Z,0.00
2018-12-25T03:38:06.015Z,0.00
2018-12-25T03:39:05.993Z,0.00
2018-12-25T03:40:06.005Z,0.00
2018-12-25T03:41:05.978Z,0.00
2018-12-25T03:42:05.958Z,0.00
2018-12-25T03:43:05.947Z,0.00
2018-12-25T03:44:05.935Z,0.00
2018-12-25T03:45:05.944Z,0.00
2018-12-25T03:46:05.980Z,0.00
2018-12-25T03:47:05.911Z,0.00
2018-12-25T03:48:05.893Z,0.00
2018-12-25T03:49:05.879Z,0.00
2018-12-25T03:50:10.836Z,0.00
2018-12-25T03:51:06.866Z,0.00
2018-12-25T03:52:05.845Z,0.00
2018-12-25T03:53:05.840Z,0.00
2018-12-25T03:54:05.828Z,0.00
2018-12-25T03:55:05.872Z,0.00
2018-12-25T03:56:05.815Z,0.00
2018-12-25T03:57:05.795Z,0.00
2018-12-25T03:58:05.785Z,0.00
2018-12-25T03:59:05.769Z,0.00
2018-12-25T04:00:05.756Z,0.00
2018-12-25T04:01:05.799Z,0.00
2018-12-25T04:02:05.741Z,0.00
2018-12-25T04:03:05.725Z,0.00
2018-12-25T04:04:05.711Z,0.00
2018-12-25T04:05:05.704Z,0.00
2018-12-25T04:06:05.707Z,0.00
2018-12-25T04:07:05.694Z,0.00
2018-12-25T04:08:05.696Z,0.00
2018-12-25T04:09:05.656Z,0.00
2018-12-25T04:10:05.646Z,0.00
2018-12-25T04:11:05.667Z,0.00
2018-12-25T04:12:05.659Z,0.00
2018-12-25T04:13:05.627Z,0.00
2018-12-25T04:14:05.600Z,0.00
2018-12-25T04:15:05.592Z,0.00
2018-12-25T04:16:05.577Z,0.00
2018-12-25T04:17:05.582Z,0.00
2018-12-25T04:18:05.556Z,0.00
2018-12-25T04:19:05.565Z,0.00
2018-12-25T04:20:05.535Z,0.00
2018-12-25T04:21:05.529Z,0.00
2018-12-25T04:22:05.527Z,0.00
2018-12-25T04:23:05.502Z,0.00
2018-12-25T04:24:05.490Z,0.00
2018-12-25T04:25:05.483Z,0.00
2018-12-25T04:26:05.466Z,0.00
2018-12-25T04:27:05.471Z,0.00
2018-12-25T04:28:05.454Z,0.00
2018-12-25T04:29:05.432Z,0.00
2018-12-25T04:30:05.424Z,0.00
2018-12-25T04:31:05.441Z,0.00
2018-12-25T04:32:05.416Z,0.00
2018-12-25T04:33:05.389Z,0.00
2018-12-25T04:34:05.378Z,0.00
2018-12-25T04:35:05.371Z,0.00
2018-12-25T04:36:05.362Z,0.00
2018-12-25T04:37:05.412Z,0.00
2018-12-25T04:38:05.337Z,0.00
2018-12-25T04:39:05.324Z,0.00
2018-12-25T04:40:05.309Z,0.00
2018-12-25T04:41:05.297Z,0.00
2018-12-25T04:42:05.299Z,0.00
2018-12-25T04:43:05.287Z,0.00
2018-12-25T04:44:05.270Z,0.00
2018-12-25T04:45:05.258Z,0.00
2018-12-25T04:46:05.242Z,0.00
2018-12-25T04:47:05.242Z,0.00
2018-12-25T04:48:05.220Z,0.00
2018-12-25T04:49:05.231Z,0.00
2018-12-25T04:50:05.202Z,0.00
2018-12-25T04:51:05.190Z,0.00
2018-12-25T04:52:05.218Z,0.00
2018-12-25T04:53:05.183Z,0.00
2018-12-25T04:54:05.171Z,0.00
2018-12-25T04:55:05.152Z,0.00
2018-12-25T04:56:05.134Z,0.00
2018-12-25T04:57:05.121Z,0.00
2018-12-25T04:58:05.118Z,0.00
2018-12-25T04:59:05.097Z,0.00
2018-12-25T05:00:05.087Z,0.00
2018-12-25T05:01:05.094Z,0.00
2018-12-25T05:02:05.062Z,0.00
2018-12-25T05:03:05.062Z,0.00
2018-12-25T05:04:05.042Z,0.00
2018-12-25T05:05:05.031Z,0.00
2018-12-25T05:06:05.018Z,0.00
2018-12-25T05:07:05.042Z,0.00
2018-12-25T05:08:05.020Z,0.00
2018-12-25T05:09:04.984Z,0.00
2018-12-25T05:10:04.972Z,0.00
2018-12-25T05:11:04.980Z,0.00
2018-12-25T05:12:04.954Z,0.00
2018-12-25T05:13:04.959Z,0.00
2018-12-25T05:14:04.958Z,0.00
2018-12-25T05:15:04.917Z,0.00
2018-12-25T05:16:04.915Z,0.00
2018-12-25T05:17:04.915Z,0.00
2018-12-25T05:18:04.900Z,0.00
2018-12-25T05:19:04.890Z,0.00
2018-12-25T05:20:04.862Z,0.00
2018-12-25T05:21:04.851Z,0.00
2018-12-25T05:22:04.838Z,0.00
2018-12-25T05:23:04.839Z,0.00
2018-12-25T05:24:04.823Z,0.00
2018-12-25T05:25:04.844Z,0.00
2018-12-25T05:26:04.800Z,0.00
2018-12-25T05:27:04.781Z,0.00
2018-12-25T05:28:04.817Z,0.00
2018-12-25T05:29:04.767Z,0.00
2018-12-25T05:30:04.763Z,0.00
2018-12-25T05:31:04.739Z,0.00
2018-12-25T05:32:04.727Z,0.00
2018-12-25T05:33:04.745Z,0.00
2018-12-25T05:34:04.703Z,0.00
2018-12-25T05:35:04.694Z,0.00
2018-12-25T05:36:04.685Z,0.00
2018-12-25T05:37:04.670Z,0.00
2018-12-25T05:38:04.695Z,0.00
2018-12-25T05:39:04.652Z,0.00
2018-12-25T05:40:04.656Z,0.00
2018-12-25T05:41:04.647Z,0.00
2018-12-25T05:42:04.621Z,0.00
2018-12-25T05:43:04.613Z,0.00
2018-12-25T05:44:04.618Z,0.00
2018-12-25T05:45:04.580Z,0.00
2018-12-25T05:46:04.573Z,0.00
2018-12-25T05:47:04.579Z,0.00
2018-12-25T05:48:04.565Z,0.00
2018-12-25T05:49:04.537Z,0.00
2018-12-25T05:50:04.534Z,0.00
2018-12-25T05:51:04.516Z,0.00
2018-12-25T05:52:04.511Z,0.00
2018-12-25T05:53:04.514Z,0.00
2018-12-25T05:54:04.482Z,0.00
2018-12-25T05:55:04.469Z,0.00
2018-12-25T05:56:04.473Z,0.00
2018-12-25T05:57:04.446Z,0.00
2018-12-25T05:58:04.466Z,0.00
2018-12-25T05:59:04.424Z,0.00
2018-12-25T06:00:04.417Z,0.00
2018-12-25T06:01:04.402Z,0.00
2018-12-25T06:02:04.391Z,0.00
2018-12-25T06:03:04.401Z,0.00
2018-12-25T06:04:04.401Z,0.00
2018-12-25T06:05:04.360Z,0.00
2018-12-25T06:06:04.350Z,0.00
2018-12-25T06:07:04.336Z,0.00
2018-12-25T06:08:04.322Z,0.00
2018-12-25T06:09:04.325Z,0.00
2018-12-25T06:10:04.335Z,0.00
2018-12-25T06:11:04.296Z,0.00
2018-12-25T06:12:04.279Z,0.00
2018-12-25T06:13:04.268Z,0.00
2018-12-25T06:14:04.271Z,0.00
2018-12-25T06:15:04.251Z,0.00
2018-12-25T06:16:04.290Z,0.00
2018-12-25T06:17:04.227Z,0.00
2018-12-25T06:18:04.211Z,0.00
2018-12-25T06:19:04.214Z,0.00
2018-12-25T06:20:04.190Z,0.00
2018-12-25T06:21:04.179Z,0.00
2018-12-25T06:22:04.187Z,0.00
2018-12-25T06:23:04.162Z,0.00
2018-12-25T06:24:04.158Z,0.00
2018-12-25T06:25:04.133Z,0.00
2018-12-25T06:26:04.123Z,0.00
2018-12-25T06:27:04.111Z,0.00
2018-12-25T06:28:04.101Z,0.00
2018-12-25T06:29:04.131Z,0.00
2018-12-25T06:30:04.078Z,0.00
2018-12-25T06:31:04.069Z,0.00
2018-12-25T06:32:04.055Z,0.00
2018-12-25T06:33:04.045Z,0.00
2018-12-25T06:34:04.046Z,0.00
2018-12-25T06:35:04.021Z,0.00
2018-12-25T06:36:04.048Z,0.00
2018-12-25T06:37:04.000Z,0.00
2018-12-25T06:38:03.987Z,0.00
2018-12-25T06:39:04.002Z,0.00
2018-12-25T06:40:03.999Z,0.00
2018-12-25T06:41:03.957Z,0.00
2018-12-25T06:42:03.943Z,0.00
2018-12-25T06:43:03.938Z,0.00
2018-12-25T06:44:03.932Z,0.00
2018-12-25T06:45:03.912Z,0.00
2018-12-25T06:46:03.899Z,0.00
2018-12-25T06:47:03.888Z,0.00
2018-12-25T06:48:03.875Z,0.00
2018-12-25T06:49:04.055Z,0.00
2018-12-25T06:50:03.853Z,0.00
2018-12-25T06:51:04.296Z,0.00
2018-12-25T06:52:03.835Z,0.00
2018-12-25T06:53:03.821Z,0.00
2018-12-25T06:54:03.812Z,0.00
2018-12-25T06:55:03.836Z,0.00
2018-12-25T06:56:03.788Z,0.00
2018-12-25T06:57:03.777Z,0.00
2018-12-25T06:58:03.763Z,0.00
2018-12-25T06:59:03.753Z,0.00
2018-12-25T07:00:03.751Z,0.00
2018-12-25T07:01:03.742Z,0.00
2018-12-25T07:02:03.733Z,0.00
2018-12-25T07:03:03.718Z,0.00
2018-12-25T07:04:03.704Z,0.00
2018-12-25T07:05:03.705Z,0.00
2018-12-25T07:06:03.678Z,0.00
2018-12-25T07:07:03.696Z,0.00
2018-12-25T07:08:03.659Z,0.00
2018-12-25T07:09:03.648Z,0.00
2018-12-25T07:10:03.642Z,0.00
2018-12-25T07:11:03.621Z,0.00
2018-12-25T07:12:03.607Z,0.00
2018-12-25T07:13:03.595Z,0.00
2018-12-25T07:14:03.585Z,0.00
2018-12-25T07:15:03.615Z,0.00
2018-12-25T07:16:03.563Z,0.00
2018-12-25T07:17:03.549Z,0.00
2018-12-25T07:18:03.544Z,0.00
2018-12-25T07:19:03.531Z,0.00
2018-12-25T07:20:03.527Z,0.00
2018-12-25T07:21:11.967Z,0.00
2018-12-25T07:22:04.495Z,0.00
2018-12-25T07:23:03.483Z,0.00
2018-12-25T07:24:03.471Z,0.00
2018-12-25T07:25:03.496Z,0.00
2018-12-25T07:26:03.477Z,0.00
2018-12-25T07:27:03.441Z,0.00
2018-12-25T07:28:03.460Z,0.00
2018-12-25T07:29:03.415Z,0.00
2018-12-25T07:30:03.416Z,0.00
2018-12-25T07:31:03.433Z,0.00
2018-12-25T07:32:03.384Z,0.00
2018-12-25T07:33:03.382Z,0.00
2018-12-25T07:34:03.377Z,0.00
2018-12-25T07:35:03.362Z,0.00
2018-12-25T07:36:03.338Z,0.00
2018-12-25T07:37:03.326Z,0.00
2018-12-25T07:38:03.320Z,0.00
2018-12-25T07:39:03.333Z,0.00
2018-12-25T07:40:03.304Z,0.00
2018-12-25T07:41:03.287Z,0.00
2018-12-25T07:42:03.287Z,0.00
2018-12-25T07:43:03.261Z,0.00
2018-12-25T07:44:03.262Z,0.00
2018-12-25T07:45:03.250Z,0.00
2018-12-25T07:46:03.226Z,0.00
2018-12-25T07:47:03.218Z,0.00
2018-12-25T07:48:03.224Z,0.00
2018-12-25T07:49:03.196Z,0.00
2018-12-25T07:50:03.221Z,0.00
2018-12-25T07:51:03.171Z,0.00
2018-12-25T07:52:03.163Z,4.00
2018-12-25T07:53:03.148Z,4.00
2018-12-25T07:54:03.141Z,4.00
2018-12-25T07:55:03.128Z,4.00
2018-12-25T07:56:03.132Z,4.00
2018-12-25T07:57:03.103Z,4.00
2018-12-25T07:58:03.137Z,4.00
2018-12-25T07:59:03.081Z,0.00
2018-12-25T08:00:03.073Z,0.00
2018-12-25T08:01:03.086Z,4.00
2018-12-25T08:02:03.070Z,4.00
2018-12-25T08:03:03.038Z,0.00
2018-12-25T08:04:03.027Z,0.00
2018-12-25T08:05:03.015Z,0.00
2018-12-25T08:06:03.023Z,0.00
2018-12-25T08:07:03.019Z,0.00
2018-12-25T08:08:02.998Z,0.00
2018-12-25T08:09:02.970Z,0.00
2018-12-25T08:10:02.958Z,0.00
2018-12-25T08:11:02.968Z,0.00
2018-12-25T08:12:02.941Z,0.00
2018-12-25T08:13:02.925Z,4.00
2018-12-25T08:14:02.947Z,4.00
2018-12-25T08:15:02.904Z,4.00
2018-12-25T08:16:02.904Z,4.00
2018-12-25T08:17:02.879Z,4.00
2018-12-25T08:18:02.869Z,4.00
2018-12-25T08:19:02.860Z,4.00
2018-12-25T08:20:02.848Z,4.00
2018-12-25T08:21:02.883Z,4.00
2018-12-25T08:22:02.825Z,4.00
2018-12-25T08:23:02.970Z,4.00
2018-12-25T08:24:02.811Z,4.00
2018-12-25T08:25:02.791Z,8.00
2018-12-25T08:26:02.792Z,4.00
2018-12-25T08:27:02.776Z,4.00
2018-12-25T08:28:02.757Z,8.00
2018-12-25T08:29:02.747Z,4.00
2018-12-25T08:30:02.744Z,8.00
2018-12-25T08:31:02.735Z,12.00
2018-12-25T08:32:02.712Z,8.00
2018-12-25T08:33:02.714Z,8.00
2018-12-25T08:34:02.715Z,12.00
2018-12-25T08:35:02.683Z,8.00
2018-12-25T08:36:02.679Z,8.00
2018-12-25T08:37:02.657Z,12.00
2018-12-25T08:38:02.646Z,8.00
2018-12-25T08:39:02.644Z,8.00
2018-12-25T08:40:02.638Z,8.00
2018-12-25T08:41:02.632Z,8.00
2018-12-25T08:42:02.598Z,8.00
2018-12-25T08:43:02.598Z,12.00
2018-12-25T08:44:02.576Z,12.00
2018-12-25T08:45:02.577Z,8.00
2018-12-25T08:46:02.582Z,8.00
2018-12-25T08:47:02.879Z,8.00
2018-12-25T08:48:02.535Z,8.00
2018-12-25T08:49:02.520Z,12.00
2018-12-25T08:50:02.513Z,12.00
2018-12-25T08:51:02.505Z,12.00
2018-12-25T08:52:02.505Z,12.00
2018-12-25T08:53:02.490Z,12.00
2018-12-25T08:54:02.464Z,12.00
2018-12-25T08:55:02.458Z,8.00
2018-12-25T08:56:02.445Z,12.00
2018-12-25T08:57:02.540Z,12.00
2018-12-25T08:58:02.421Z,12.00
2018-12-25T08:59:02.414Z,8.00
2018-12-25T09:00:02.405Z,8.00
2018-12-25T09:01:02.390Z,8.00
2018-12-25T09:02:02.387Z,12.00
2018-12-25T09:03:02.382Z,12.00
2018-12-25T09:04:02.357Z,12.00
2018-12-25T09:05:02.344Z,12.00
2018-12-25T09:06:02.332Z,12.00
2018-12-25T09:07:02.332Z,8.00
2018-12-25T09:08:02.310Z,8.00
2018-12-25T09:09:02.297Z,12.00
2018-12-25T09:10:02.375Z,8.00
2018-12-25T09:11:02.287Z,8.00
2018-12-25T09:12:02.276Z,8.00
2018-12-25T09:13:02.252Z,8.00
2018-12-25T09:14:02.241Z,12.00
2018-12-25T09:15:02.232Z,8.00
2018-12-25T09:16:02.219Z,8.00
2018-12-25T09:17:02.225Z,12.00
2018-12-25T09:18:02.205Z,8.00
2018-12-25T09:19:02.186Z,8.00
2018-12-25T09:20:02.197Z,8.00
2018-12-25T09:21:02.162Z,8.00
2018-12-25T09:22:02.163Z,8.00
2018-12-25T09:23:02.142Z,8.00
2018-12-25T09:24:02.148Z,8.00
2018-12-25T09:25:02.120Z,8.00
2018-12-25T09:26:02.111Z,8.00
2018-12-25T09:27:02.112Z,8.00
2018-12-25T09:28:02.094Z,12.00
2018-12-25T09:29:02.079Z,8.00
2018-12-25T09:30:02.064Z,8.00
2018-12-25T09:31:02.052Z,8.00
2018-12-25T09:32:02.050Z,12.00
2018-12-25T09:33:02.087Z,12.00
2018-12-25T09:34:02.017Z,8.00
2018-12-25T09:35:02.019Z,12.00
2018-12-25T09:36:02.020Z,12.00
2018-12-25T09:37:02.003Z,12.00
2018-12-25T09:38:01.998Z,12.00
2018-12-25T09:39:01.964Z,12.00
2018-12-25T09:40:01.962Z,12.00
2018-12-25T09:41:01.944Z,16.00
2018-12-25T09:42:01.943Z,16.00
2018-12-25T09:43:01.954Z,16.00
2018-12-25T09:44:01.906Z,16.00
2018-12-25T09:45:01.905Z,16.00
2018-12-25T09:46:01.908Z,20.00
2018-12-25T09:47:01.890Z,20.00
2018-12-25T09:48:01.862Z,24.00
2018-12-25T09:49:01.853Z,20.00
2018-12-25T09:50:01.839Z,24.00
2018-12-25T09:51:01.827Z,24.00
2018-12-25T09:52:01.863Z,24.00
2018-12-25T09:53:01.815Z,20.00
2018-12-25T09:54:01.805Z,20.00
2018-12-25T09:55:01.783Z,20.00
2018-12-25T09:56:01.775Z,16.00
2018-12-25T09:57:01.787Z,20.00
2018-12-25T09:58:01.858Z,20.00
2018-12-25T09:59:01.744Z,24.00
2018-12-25T10:00:01.731Z,20.00
2018-12-25T10:01:01.742Z,20.00
2018-12-25T10:02:01.705Z,20.00
2018-12-25T10:03:01.706Z,20.00
2018-12-25T10:04:01.682Z,20.00
2018-12-25T10:05:01.678Z,20.00
2018-12-25T10:06:01.680Z,24.00
2018-12-25T10:07:01.682Z,20.00
2018-12-25T10:08:01.663Z,16.00
2018-12-25T10:09:01.665Z,20.00
2018-12-25T10:10:01.635Z,16.00
2018-12-25T10:11:01.629Z,20.00
2018-12-25T10:12:01.593Z,20.00
2018-12-25T10:13:01.598Z,16.00
2018-12-25T10:14:01.609Z,20.00
2018-12-25T10:15:01.561Z,20.00
2018-12-25T10:16:01.552Z,20.00
2018-12-25T10:17:01.544Z,20.00
2018-12-25T10:18:01.538Z,20.00
2018-12-25T10:19:01.518Z,16.00
2018-12-25T10:20:01.516Z,20.00
2018-12-25T10:21:01.495Z,20.00
2018-12-25T10:22:03.014Z,20.00
2018-12-25T10:23:01.498Z,20.00
2018-12-25T10:24:01.463Z,20.00
2018-12-25T10:25:01.455Z,24.00
2018-12-25T10:26:01.468Z,20.00
2018-12-25T10:27:01.439Z,20.00
2018-12-25T10:28:01.426Z,20.00
2018-12-25T10:29:01.425Z,20.00
2018-12-25T10:30:01.401Z,20.00
2018-12-25T10:31:01.386Z,20.00
2018-12-25T10:32:01.373Z,20.00
2018-12-25T10:33:01.384Z,20.00
2018-12-25T10:34:01.355Z,20.00
2018-12-25T10:35:01.353Z,24.00
2018-12-25T10:36:01.324Z,24.00
2018-12-25T10:37:01.315Z,24.00
2018-12-25T10:38:01.308Z,24.00
2018-12-25T10:39:01.329Z,28.00
2018-12-25T10:40:01.281Z,28.00
2018-12-25T10:41:01.273Z,32.00
2018-12-25T10:42:01.262Z,28.00
2018-12-25T10:43:01.251Z,28.00
2018-12-25T10:44:01.259Z,24.00
2018-12-25T10:45:01.241Z,24.00
2018-12-25T10:46:01.290Z,24.00
2018-12-25T10:47:01.201Z,24.00
2018-12-25T10:48:01.193Z,24.00
2018-12-25T10:49:01.272Z,24.00
2018-12-25T10:50:01.168Z,24.00
2018-12-25T10:51:01.159Z,24.00
2018-12-25T10:52:01.162Z,24.00
2018-12-25T10:53:01.136Z,24.00
2018-12-25T10:54:01.136Z,24.00
2018-12-25T10:55:01.126Z,24.00
2018-12-25T10:56:01.102Z,24.00
2018-12-25T10:57:01.094Z,24.00
2018-12-25T10:58:01.078Z,24.00
2018-12-25T10:59:01.079Z,24.00
2018-12-25T11:00:01.059Z,20.00
2018-12-25T11:01:01.079Z,24.00
2018-12-25T11:02:01.035Z,24.00
2018-12-25T11:03:01.025Z,24.00
2018-12-25T11:04:01.022Z,24.00
2018-12-25T11:05:01.002Z,28.00
2018-12-25T11:06:01.003Z,24.00
2018-12-25T11:07:01.007Z,28.00
2018-12-25T11:08:00.990Z,28.00
2018-12-25T11:09:01.834Z,28.00
2018-12-25T11:10:00.991Z,32.00
2018-12-25T11:11:00.933Z,24.00
2018-12-25T11:12:00.921Z,20.00
2018-12-25T11:13:00.911Z,24.00
2018-12-25T11:14:00.928Z,24.00
2018-12-25T11:15:00.908Z,28.00
2018-12-25T11:16:00.883Z,24.00
2018-12-25T11:17:00.865Z,24.00
2018-12-25T11:18:00.856Z,28.00
2018-12-25T11:19:00.846Z,28.00
2018-12-25T11:20:00.844Z,24.00
2018-12-25T11:21:00.822Z,28.00
2018-12-25T11:22:00.814Z,20.00
2018-12-25T11:23:00.813Z,24.00
2018-12-25T11:24:00.786Z,24.00
2018-12-25T11:25:00.812Z,32.00
2018-12-25T11:26:00.772Z,32.00
2018-12-25T11:27:00.794Z,32.00
2018-12-25T11:28:00.752Z,20.00
2018-12-25T11:29:00.730Z,20.00
2018-12-25T11:30:00.744Z,24.00
2018-12-25T11:31:00.709Z,24.00
2018-12-25T11:32:00.702Z,32.00
2018-12-25T11:33:00.693Z,44.00
2018-12-25T11:34:02.573Z,48.00
2018-12-25T11:35:00.677Z,40.00
2018-12-25T11:36:00.659Z,32.00
2018-12-25T11:37:00.641Z,24.00
2018-12-25T11:38:00.674Z,20.00
2018-12-25T11:39:00.620Z,24.00
2018-12-25T11:40:00.626Z,28.00
2018-12-25T11:41:00.600Z,32.00
2018-12-25T11:42:00.586Z,44.00
2018-12-25T11:43:00.578Z,56.00
2018-12-25T11:44:00.564Z,60.00
2018-12-25T11:45:00.562Z,132.00
2018-12-25T11:46:00.547Z,52.00
2018-12-25T11:47:00.540Z,56.00
2018-12-25T11:48:00.520Z,52.00
2018-12-25T11:49:00.506Z,56.00
2018-12-25T11:50:00.520Z,56.00
2018-12-25T11:51:00.495Z,64.00
2018-12-25T11:52:00.498Z,76.00
2018-12-25T11:53:00.460Z,80.00
2018-12-25T11:54:00.469Z,68.00
2018-12-25T11:55:00.452Z,80.00
2018-12-25T11:56:00.431Z,52.00
2018-12-25T11:57:00.438Z,48.00
2018-12-25T11:58:00.409Z,60.00
2018-12-25T11:59:00.394Z,52.00
2018-12-25T12:00:00.455Z,56.00
2018-12-25T12:01:00.393Z,72.00
2018-12-25T12:02:00.359Z,140.00
2018-12-25T12:03:00.347Z,136.00
2018-12-25T12:04:00.340Z,80.00
2018-12-25T12:05:00.326Z,100.00
2018-12-25T12:06:00.372Z,124.00
2018-12-25T12:07:00.309Z,132.00
2018-12-25T12:08:00.320Z,124.00
2018-12-25T12:09:00.284Z,120.00
2018-12-25T12:10:00.297Z,124.00
2018-12-25T12:11:00.314Z,72.00
2018-12-25T12:12:00.251Z,68.00
2018-12-25T12:13:00.249Z,92.00
2018-12-25T12:14:00.255Z,132.00
2018-12-25T12:15:00.219Z,152.00
2018-12-25T12:16:00.240Z,156.00
2018-12-25T12:17:00.196Z,132.00
2018-12-25T12:18:00.186Z,196.00
2018-12-25T12:19:00.170Z,204.00
2018-12-25T12:20:00.162Z,108.00
2018-12-25T12:21:00.169Z,96.00
2018-12-25T12:22:00.139Z,76.00
2018-12-25T12:23:00.138Z,116.00
2018-12-25T12:24:00.139Z,84.00
2018-12-25T12:25:00.171Z,120.00
2018-12-25T12:26:00.104Z,96.00
2018-12-25T12:27:00.093Z,60.00
2018-12-25T12:28:00.071Z,68.00
2018-12-25T12:29:00.058Z,192.00
2018-12-25T12:30:00.093Z,236.00
2018-12-25T12:31:00.053Z,220.00
2018-12-25T12:32:00.032Z,196.00
2018-12-25T12:33:00.014Z,120.00
2018-12-25T12:34:00.007Z,76.00
2018-12-25T12:34:59.990Z,60.00
2018-12-25T12:36:00.006Z,60.00
2018-12-25T12:36:59.970Z,60.00
2018-12-25T12:37:59.957Z,216.00
2018-12-25T12:38:59.950Z,184.00
2018-12-25T12:39:59.942Z,180.00
2018-12-25T12:40:59.932Z,180.00
2018-12-25T12:41:59.947Z,164.00
2018-12-25T12:42:59.902Z,132.00
2018-12-25T12:43:59.893Z,100.00
2018-12-25T12:44:59.882Z,100.00
2018-12-25T12:45:59.901Z,80.00
2018-12-25T12:46:59.883Z,88.00
2018-12-25T12:47:59.846Z,56.00
2018-12-25T12:48:59.839Z,144.00
2018-12-25T12:49:59.828Z,148.00
2018-12-25T12:50:59.816Z,68.00
2018-12-25T12:51:59.841Z,88.00
2018-12-25T12:52:59.795Z,112.00
2018-12-25T12:53:59.789Z,128.00
2018-12-25T12:54:59.767Z,140.00
2018-12-25T12:55:59.761Z,140.00
2018-12-25T12:56:59.831Z,140.00
2018-12-25T12:57:59.747Z,64.00
2018-12-25T12:58:59.733Z,76.00
2018-12-25T12:59:59.731Z,84.00
2018-12-25T13:00:59.702Z,72.00
2018-12-25T13:01:59.765Z,180.00
2018-12-25T13:02:59.688Z,132.00
2018-12-25T13:03:59.669Z,96.00
2018-12-25T13:04:59.656Z,72.00
2018-12-25T13:05:59.652Z,64.00
2018-12-25T13:06:59.646Z,88.00
2018-12-25T13:07:59.631Z,96.00